Time;durP1;ratioP1;P1;durP2;ratioP2;P2;SDS_P1;SDS_P2;PMS_P1;PMS_P2;Temp;Humidity;BMP_temperature;BMP_pressure;BME280_temperature;BME280_humidity;BME280_pressure;Samples;Min_cycle;Max_cycle;Signal;HPM_P1;HPM_P2
2023/04/25 00:02:13;;;;;;;25.15;19.27;;;6.90;99.90;;;6.08;100.00;97185.28;4990359;28;20056;-79
2023/04/25 00:04:41;;;;;;;23.20;17.77;;;6.90;99.90;;;6.12;100.00;97186.88;5004892;28;20045;-78
2023/04/25 00:07:08;;;;;;;26.40;20.58;;;6.90;99.90;;;6.15;100.00;97178.22;5003534;28;20116;-79
2023/04/25 00:09:35;;;;;;;23.67;17.55;;;6.90;99.90;;;6.15;100.00;97171.31;5005891;28;20058;-80
2023/04/25 00:12:03;;;;;;;21.80;19.50;;;6.90;99.90;;;6.08;100.00;97164.66;5006904;28;20054;-79
2023/04/25 00:14:30;;;;;;;20.98;17.67;;;6.80;99.90;;;6.08;100.00;97160.34;5012013;28;20105;-79
2023/04/25 00:16:57;;;;;;;26.90;19.23;;;6.80;99.90;;;6.13;100.00;97155.06;5003892;28;20042;-79
2023/04/25 00:19:28;;;;;;;23.35;18.80;;;6.80;99.90;;;6.22;100.00;97156.50;5004701;28;20050;-79
2023/04/25 00:21:55;;;;;;;25.58;18.63;;;6.90;99.90;;;6.13;100.00;97160.22;4988073;28;20082;-79
2023/04/25 00:24:23;;;;;;;19.60;15.93;;;6.90;99.90;;;6.09;100.00;97166.38;5010797;28;20085;-79
2023/04/25 00:26:51;;;;;;;20.73;17.65;;;6.90;99.90;;;6.08;100.00;97164.66;5009638;28;20054;-79
2023/04/25 00:29:18;;;;;;;19.63;14.50;;;6.90;99.90;;;6.07;100.00;97171.56;5010519;28;20092;-79
2023/04/25 00:31:46;;;;;;;16.85;13.48;;;6.80;99.90;;;6.14;100.00;97167.06;5006872;28;20465;-79
2023/04/25 00:34:13;;;;;;;19.45;15.40;;;6.70;99.90;;;6.10;100.00;97178.34;5007421;28;20050;-79
2023/04/25 00:36:40;;;;;;;20.73;17.45;;;6.70;99.90;;;6.00;100.00;97159.78;4993930;28;20518;-79
2023/04/25 00:39:08;;;;;;;25.15;18.42;;;6.70;99.90;;;5.99;100.00;97172.69;5005726;28;20042;-79
2023/04/25 00:41:35;;;;;;;22.60;18.35;;;6.80;99.90;;;6.05;100.00;97168.19;4989810;28;20053;-78
2023/04/25 00:44:11;;;;;;;21.23;16.77;;;6.90;99.90;;;6.00;100.00;97157.19;4992269;28;20041;-78
2023/04/25 00:46:39;;;;;;;19.02;15.10;;;6.90;99.90;;;6.02;100.00;97157.13;4992617;28;20048;-79
2023/04/25 00:49:07;;;;;;;16.42;13.85;;;6.90;99.90;;;6.03;100.00;97149.34;5007912;28;20544;-78
2023/04/25 00:51:35;;;;;;;13.85;11.68;;;6.80;99.90;;;5.96;100.00;97144.47;5000363;28;20488;-78
2023/04/25 00:54:03;;;;;;;14.43;12.30;;;6.70;99.90;;;5.99;100.00;97139.19;5005061;28;20095;-78
2023/04/25 00:56:30;;;;;;;14.18;10.80;;;6.70;99.90;;;5.98;100.00;97133.22;5003005;28;20132;-78
2023/04/25 00:58:57;;;;;;;17.05;13.88;;;6.70;99.90;;;5.91;100.00;97126.53;5004187;28;20077;-79
2023/04/25 01:01:25;;;;;;;13.23;11.15;;;6.70;99.90;;;5.98;100.00;97128.06;4988076;28;20057;-78
2023/04/25 01:03:54;;;;;;;18.65;13.93;;;6.70;99.90;;;5.91;100.00;97135.97;5002253;28;20057;-78
2023/04/25 01:06:22;;;;;;;17.33;12.88;;;6.70;99.90;;;5.94;100.00;97139.34;5008552;28;20046;-78
2023/04/25 01:08:49;;;;;;;16.48;13.63;;;6.80;99.90;;;5.85;100.00;97135.28;5001946;28;20046;-78
2023/04/25 01:11:16;;;;;;;14.63;12.13;;;6.80;99.90;;;5.82;100.00;97127.66;5016232;28;20152;-78
2023/04/25 01:13:44;;;;;;;12.57;10.38;;;6.70;99.90;;;5.96;100.00;97134.16;5003652;28;20046;-79
2023/04/25 01:16:11;;;;;;;11.82;10.18;;;6.60;99.90;;;5.95;100.00;97129.88;5005957;28;20081;-79
2023/04/25 01:18:42;;;;;;;13.30;10.18;;;6.70;99.90;;;5.95;100.00;97137.59;4985987;28;20054;-78
2023/04/25 01:21:15;;;;;;;12.55;8.05;;;6.70;99.90;;;5.89;100.00;97136.03;5000861;28;20574;-78
2023/04/25 01:23:43;;;;;;;10.75;8.23;;;6.70;99.90;;;5.88;100.00;97131.75;5010341;28;20834;-78
2023/04/25 01:26:12;;;;;;;9.68;7.75;;;6.70;99.90;;;5.95;100.00;97135.03;5007349;28;20573;-78
2023/04/25 01:28:42;;;;;;;8.50;6.78;;;6.80;99.90;;;5.93;100.00;97135.06;5004344;28;20078;-79
2023/04/25 01:31:12;;;;;;;9.32;7.82;;;6.70;99.90;;;5.74;100.00;97128.78;5015276;28;20046;-78
2023/04/25 01:33:39;;;;;;;10.27;7.40;;;6.70;99.90;;;5.84;100.00;97131.03;4993631;28;20046;-77
2023/04/25 01:36:06;;;;;;;13.75;9.43;;;6.70;99.90;;;5.72;100.00;97125.41;5008733;28;20052;-78
2023/04/25 01:38:37;;;;;;;13.07;10.40;;;6.60;99.90;;;5.69;100.00;97126.34;5008848;28;20380;-77
2023/04/25 01:41:08;;;;;;;9.73;8.30;;;6.60;99.90;;;5.80;100.00;97139.75;5008661;28;20060;-77
2023/04/25 01:43:36;;;;;;;14.35;10.73;;;6.60;99.90;;;5.73;100.00;97132.25;5010235;28;20058;-77
2023/04/25 01:46:04;;;;;;;12.77;8.90;;;6.60;99.90;;;5.81;100.00;97132.84;5012331;28;20080;-78
2023/04/25 01:48:31;;;;;;;9.57;7.88;;;6.60;99.90;;;5.90;100.00;97136.88;5013492;28;20488;-78
2023/04/25 01:50:58;;;;;;;14.85;10.75;;;6.60;99.90;;;5.89;100.00;97128.31;5003065;28;20066;-77
2023/04/25 01:53:26;;;;;;;14.32;10.13;;;6.70;99.90;;;5.75;100.00;97133.88;5013472;28;20041;-77
2023/04/25 01:55:56;;;;;;;13.45;9.10;;;6.70;99.90;;;5.77;100.00;97129.53;5012563;28;20389;-77
2023/04/25 01:58:24;;;;;;;14.05;10.57;;;6.60;99.90;;;5.67;100.00;97128.13;4990760;28;20414;-77
2023/04/25 02:00:52;;;;;;;14.13;12.25;;;6.60;99.90;;;5.50;100.00;97127.81;5010631;28;20112;-77
2023/04/25 02:03:19;;;;;;;16.33;12.65;;;6.50;99.90;;;5.61;100.00;97128.28;4991846;28;20054;-78
2023/04/25 02:05:47;;;;;;;17.30;13.60;;;6.40;99.90;;;5.71;100.00;97123.72;4992514;28;20217;-77
2023/04/25 02:08:16;;;;;;;18.30;13.50;;;6.50;99.90;;;5.64;100.00;97117.91;4998265;28;20065;-77
2023/04/25 02:10:43;;;;;;;16.08;12.50;;;6.50;99.90;;;5.58;100.00;97116.34;5011441;28;20051;-77
2023/04/25 02:13:11;;;;;;;19.50;15.20;;;6.50;99.90;;;5.59;100.00;97112.91;5007866;28;20081;-77
2023/04/25 02:15:38;;;;;;;19.15;15.63;;;6.50;99.90;;;5.50;100.00;97125.22;5010488;28;20207;-78
2023/04/25 02:18:06;;;;;;;17.77;14.32;;;6.50;99.90;;;5.63;100.00;97127.38;5006359;28;20064;-77
2023/04/25 02:20:33;;;;;;;20.33;14.98;;;6.50;99.90;;;5.62;100.00;97127.41;5008346;28;20635;-79
2023/04/25 02:23:01;;;;;;;16.92;13.45;;;6.50;99.90;;;5.76;100.00;97127.00;5008357;28;20049;-78
2023/04/25 02:25:28;;;;;;;15.15;12.90;;;6.50;99.90;;;5.87;100.00;97125.78;5007266;28;20132;-77
2023/04/25 02:27:55;;;;;;;16.05;13.27;;;6.50;99.90;;;5.86;100.00;97125.81;5010590;28;20061;-78
2023/04/25 02:30:22;;;;;;;21.17;16.00;;;6.60;99.90;;;5.89;100.00;97112.84;4989924;28;20049;-77
2023/04/25 02:33:07;;;;;;;21.10;15.63;;;6.60;99.90;;;5.86;100.00;97107.78;5009420;28;20049;-77
2023/04/25 02:35:34;;;;;;;23.55;15.82;;;6.70;99.90;;;5.76;100.00;97114.97;4998032;28;20068;-77
2023/04/25 02:38:02;;;;;;;22.67;17.15;;;6.70;99.90;;;5.64;100.00;97108.47;4988422;28;20446;-77
2023/04/25 02:40:29;;;;;;;22.10;16.83;;;6.60;99.90;;;5.68;100.00;97116.06;5006019;28;20456;-77
2023/04/25 02:42:56;;;;;;;25.40;17.33;;;6.50;99.90;;;5.68;100.00;97110.94;5013688;28;20069;-77
2023/04/25 02:45:23;;;;;;;18.63;15.25;;;6.50;99.90;;;5.82;100.00;97119.09;5004251;28;20053;-77
2023/04/25 02:47:50;;;;;;;20.70;16.52;;;6.40;99.90;;;5.75;100.00;97108.13;5007251;28;20049;-77
2023/04/25 02:50:18;;;;;;;20.50;17.08;;;6.40;99.90;;;5.76;100.00;97116.69;5010341;28;20138;-77
2023/04/25 02:52:45;;;;;;;23.30;19.52;;;6.30;99.90;;;5.52;100.00;97115.69;5002504;28;20057;-77
2023/04/25 02:55:14;;;;;;;21.92;17.80;;;6.30;99.90;;;5.61;100.00;97113.72;4988665;28;20046;-77
2023/04/25 02:57:41;;;;;;;27.45;19.35;;;6.30;99.90;;;5.60;100.00;97112.00;5010984;28;20056;-77
2023/04/25 03:00:11;;;;;;;25.63;20.15;;;6.30;99.90;;;5.51;100.00;97109.72;5010268;28;20052;-76
2023/04/25 03:02:38;;;;;;;24.23;18.67;;;6.30;99.90;;;5.58;100.00;97106.06;4975135;28;20127;-77
2023/04/25 03:05:09;;;;;;;28.60;21.35;;;6.30;99.90;;;5.50;100.00;97109.78;5010996;28;20050;-77
2023/04/25 03:07:39;;;;;;;25.40;19.52;;;6.20;99.90;;;5.53;100.00;97109.69;5010382;28;20050;-77
2023/04/25 03:10:08;;;;;;;22.73;18.17;;;6.20;99.90;;;5.47;100.00;97107.28;5004372;28;20129;-77
2023/04/25 03:12:35;;;;;;;29.23;21.80;;;6.20;99.90;;;5.47;100.00;97102.13;5023004;28;20073;-77
2023/04/25 03:15:04;;;;;;;27.73;20.98;;;6.10;99.90;;;5.37;100.00;97104.13;5014079;28;20626;-77
2023/04/25 03:17:31;;;;;;;23.90;19.27;;;6.10;99.90;;;5.54;100.00;97108.78;5003840;28;20483;-77
2023/04/25 03:19:58;;;;;;;23.45;19.27;;;6.20;99.90;;;5.52;100.00;97107.97;5007350;28;20160;-77
2023/04/25 03:22:25;;;;;;;23.92;18.42;;;6.10;99.90;;;5.55;100.00;97113.06;5021180;28;20996;-77
2023/04/25 03:24:52;;;;;;;21.33;18.13;;;6.20;99.90;;;5.55;100.00;97123.34;4988754;28;20065;-77
2023/04/25 03:27:20;;;;;;;25.50;20.17;;;6.10;99.90;;;5.64;100.00;97113.59;5005588;28;20046;-77
2023/04/25 03:29:47;;;;;;;23.27;18.50;;;6.10;99.90;;;5.61;100.00;97110.28;5009285;28;20156;-76
2023/04/25 03:32:14;;;;;;;22.45;18.55;;;6.20;99.90;;;5.60;100.00;97104.28;5005148;28;20159;-77
2023/04/25 03:34:42;;;;;;;24.27;19.15;;;6.20;99.90;;;5.70;100.00;97109.16;5007024;28;20052;-76
2023/04/25 03:37:09;;;;;;;25.98;21.52;;;6.20;99.90;;;5.51;100.00;97101.16;5003338;28;20064;-77
2023/04/25 03:39:37;;;;;;;19.67;17.58;;;6.30;99.90;;;5.70;100.00;97091.13;5006498;28;20058;-77
2023/04/25 03:42:05;;;;;;;20.20;16.52;;;6.30;99.90;;;5.77;100.00;97090.03;5006473;28;20124;-78
2023/04/25 03:44:32;;;;;;;18.23;16.33;;;6.40;99.90;;;5.78;100.00;97090.00;5006680;28;20497;-77
2023/04/25 03:46:59;;;;;;;23.52;18.30;;;6.40;99.90;;;5.81;100.00;97083.91;5007714;28;20049;-76
2023/04/25 03:49:26;;;;;;;20.85;17.25;;;6.60;99.90;;;5.81;100.00;97091.63;5005973;28;20137;-78
2023/04/25 03:51:53;;;;;;;20.13;16.70;;;6.60;99.90;;;5.90;100.00;97090.50;5002004;28;20042;-77
2023/04/25 03:54:21;;;;;;;18.98;15.40;;;6.70;99.90;;;5.84;100.00;97089.81;5007296;28;20077;-76
2023/04/25 03:56:48;;;;;;;18.02;14.63;;;6.70;99.90;;;5.85;100.00;97091.50;4986056;28;20061;-77
2023/04/25 03:59:16;;;;;;;20.40;15.73;;;6.70;99.90;;;5.85;100.00;97101.78;5009368;28;20136;-77
2023/04/25 04:01:43;;;;;;;18.88;16.52;;;6.60;99.90;;;5.82;100.00;97098.50;5007840;28;20050;-77
2023/04/25 04:04:10;;;;;;;19.48;16.92;;;6.60;99.90;;;5.89;100.00;97099.16;5005101;28;20527;-77
2023/04/25 04:06:38;;;;;;;25.05;19.63;;;6.60;99.90;;;5.97;100.00;97090.28;4992910;28;20046;-77
2023/04/25 04:09:09;;;;;;;25.38;18.63;;;6.70;99.90;;;5.91;100.00;97082.75;5010415;28;20548;-77
2023/04/25 04:11:45;;;;;;;21.02;16.48;;;6.70;99.90;;;6.04;100.00;97089.22;5004895;28;20141;-77
2023/04/25 04:14:12;;;;;;;25.65;20.25;;;6.80;99.90;;;6.07;100.00;97083.97;4986046;28;20515;-77
2023/04/25 04:16:39;;;;;;;18.50;15.18;;;6.80;99.90;;;6.10;100.00;97072.72;5008195;28;20054;-77
2023/04/25 04:19:06;;;;;;;22.80;18.83;;;6.90;99.90;;;6.15;100.00;97067.41;4984611;28;20159;-77
2023/04/25 04:21:34;;;;;;;20.92;16.77;;;6.90;99.90;;;6.13;100.00;97076.91;4989567;28;20095;-77
2023/04/25 04:24:02;;;;;;;19.33;16.10;;;6.90;99.90;;;6.17;100.00;97081.09;5008523;28;20056;-77
2023/04/25 04:26:31;;;;;;;20.83;17.42;;;7.00;99.90;;;6.07;100.00;97078.81;5009055;28;20045;-77
2023/04/25 04:28:59;;;;;;;19.85;16.13;;;7.00;99.90;;;6.02;100.00;97079.84;4990606;28;20050;-76
2023/04/25 04:31:26;;;;;;;27.38;19.73;;;6.90;99.90;;;5.80;100.00;97089.97;5008384;28;20543;-77
2023/04/25 04:33:53;;;;;;;25.98;20.27;;;6.80;99.90;;;5.59;100.00;97083.75;5005811;28;20042;-77
2023/04/25 04:36:21;;;;;;;30.70;24.63;;;6.70;99.90;;;5.66;100.00;97087.81;5008244;28;20049;-77
2023/04/25 04:38:49;;;;;;;34.28;26.40;;;6.60;99.90;;;5.73;100.00;97091.88;5003525;28;20520;-77
2023/04/25 04:41:16;;;;;;;29.35;23.25;;;6.50;99.90;;;5.74;100.00;97095.31;4993000;28;20126;-77
2023/04/25 04:43:44;;;;;;;25.30;19.55;;;6.50;99.90;;;5.85;100.00;97091.50;5023638;28;20050;-77
2023/04/25 04:46:12;;;;;;;26.77;21.35;;;6.50;99.90;;;5.84;100.00;97097.56;5004553;28;20400;-76
2023/04/25 04:48:39;;;;;;;29.42;22.08;;;6.60;99.90;;;5.82;100.00;97098.50;5005019;28;20050;-76
2023/04/25 04:51:07;;;;;;;24.00;20.13;;;6.70;99.90;;;5.86;100.00;97103.50;5004229;28;20497;-77
2023/04/25 04:53:34;;;;;;;29.70;21.35;;;6.80;99.90;;;5.96;100.00;97104.06;5003276;28;20047;-77
2023/04/25 04:56:01;;;;;;;28.02;21.70;;;6.80;99.90;;;6.12;100.00;97103.59;5007785;28;20038;-77
2023/04/25 04:58:29;;;;;;;23.52;18.58;;;6.90;99.90;;;6.15;100.00;97111.22;5009185;28;20050;-77
2023/04/25 05:00:56;;;;;;;28.38;21.85;;;7.00;99.90;;;6.11;100.00;97114.78;5010000;28;20046;-77
2023/04/25 05:03:24;;;;;;;24.25;20.40;;;7.00;99.90;;;6.05;100.00;97111.50;5013641;28;20050;-77
2023/04/25 05:05:51;;;;;;;28.67;22.10;;;6.80;99.90;;;6.08;100.00;97126.84;5012683;28;20092;-77
2023/04/25 05:08:19;;;;;;;30.02;22.60;;;6.80;99.90;;;6.01;100.00;97121.97;5003478;28;20046;-79
2023/04/25 05:10:46;;;;;;;31.95;24.50;;;6.80;99.90;;;5.81;100.00;97125.13;4998191;28;20104;-77
2023/04/25 05:13:14;;;;;;;24.63;20.23;;;6.80;99.90;;;5.98;100.00;97132.38;5011904;28;20709;-77
2023/04/25 05:15:41;;;;;;;27.38;21.05;;;6.70;99.90;;;5.99;100.00;97136.63;5013917;28;20165;-78
2023/04/25 05:18:08;;;;;;;21.73;17.98;;;6.70;99.90;;;6.02;100.00;97139.09;5018574;28;20050;-78
2023/04/25 05:20:36;;;;;;;22.60;18.85;;;6.80;99.90;;;6.00;100.00;97141.75;5021778;28;20078;-78
2023/04/25 05:23:04;;;;;;;28.08;21.00;;;6.90;99.90;;;6.10;100.00;97146.59;5002038;28;20065;-79
2023/04/25 05:25:31;;;;;;;24.95;18.63;;;6.90;99.90;;;6.17;100.00;97135.19;5010804;28;20046;-78
2023/04/25 05:27:58;;;;;;;22.73;19.05;;;6.90;99.90;;;6.23;100.00;97142.75;5012679;28;20080;-78
2023/04/25 05:30:25;;;;;;;18.92;14.98;;;7.00;99.90;;;6.35;100.00;97146.66;5016175;28;20057;-79
2023/04/25 05:32:52;;;;;;;24.00;16.83;;;7.00;99.90;;;6.25;100.00;97144.38;5006630;28;20053;-79
2023/04/25 05:35:19;;;;;;;23.42;17.77;;;7.00;99.90;;;6.19;100.00;97148.88;5006257;28;20056;-79
2023/04/25 05:37:47;;;;;;;26.17;18.27;;;7.00;99.90;;;6.33;100.00;97146.69;5008310;28;20049;-80
2023/04/25 05:40:14;;;;;;;23.05;17.58;;;7.10;99.90;;;6.30;100.00;97145.97;5005548;28;20050;-80
2023/04/25 05:42:41;;;;;;;22.00;16.25;;;7.10;99.90;;;6.10;100.00;97149.19;5013062;28;20515;-81
2023/04/25 05:45:09;;;;;;;20.58;16.55;;;6.90;99.90;;;5.86;100.00;97152.44;5009314;28;20401;-80
2023/04/25 05:47:36;;;;;;;19.90;16.85;;;6.70;99.90;;;5.87;100.00;97154.09;5009106;28;20064;-79
2023/04/25 05:50:04;;;;;;;22.10;17.20;;;6.70;99.90;;;5.85;100.00;97153.31;4991172;28;20049;-80
2023/04/25 05:52:31;;;;;;;24.75;18.25;;;6.70;99.90;;;5.92;100.00;97155.72;4999795;28;20050;-80
2023/04/25 05:54:58;;;;;;;23.30;17.92;;;6.70;99.90;;;6.04;100.00;97163.06;5008656;28;20053;-81
2023/04/25 05:57:27;;;;;;;18.98;15.73;;;6.80;99.90;;;5.98;100.00;97164.13;5007997;28;20054;-80
2023/04/25 05:59:54;;;;;;;22.40;16.30;;;6.70;99.90;;;6.08;100.00;97162.09;5011626;28;20447;-80
2023/04/25 06:02:22;;;;;;;18.95;15.05;;;6.80;99.90;;;6.21;100.00;97167.72;5012875;28;20046;-79
2023/04/25 06:04:50;;;;;;;18.63;14.73;;;6.90;99.90;;;6.13;100.00;97162.78;5011566;28;20050;-80
2023/04/25 06:07:20;;;;;;;21.02;16.95;;;6.90;99.90;;;6.22;100.00;97164.25;5013156;28;20056;-81
2023/04/25 06:09:47;;;;;;;18.02;14.05;;;7.00;99.90;;;6.30;100.00;97166.59;5006383;28;20056;-80
2023/04/25 06:12:15;;;;;;;17.38;14.23;;;7.00;99.90;;;6.32;100.00;97172.50;5006345;28;20047;-80
2023/04/25 06:14:42;;;;;;;18.08;14.68;;;7.10;99.90;;;6.35;100.00;97170.69;5012734;28;20052;-79
2023/04/25 06:17:09;;;;;;;17.65;14.35;;;7.10;99.90;;;6.39;100.00;97163.72;5013751;28;20397;-80
2023/04/25 06:19:36;;;;;;;14.23;11.60;;;7.10;99.90;;;6.26;100.00;97166.66;5013625;28;20141;-81
2023/04/25 06:22:03;;;;;;;13.68;10.88;;;7.10;99.90;;;6.32;100.00;97167.34;5011480;28;20050;-81
2023/04/25 06:24:30;;;;;;;16.90;14.48;;;7.10;99.90;;;6.41;100.00;97165.34;5016277;28;20060;-80
2023/04/25 06:26:58;;;;;;;18.67;14.80;;;7.10;99.90;;;6.51;100.00;97167.63;4995429;28;20049;-80
2023/04/25 06:29:26;;;;;;;18.17;13.07;;;7.20;99.90;;;6.46;100.00;97165.19;5011296;28;20054;-79
2023/04/25 06:31:53;;;;;;;17.50;13.55;;;7.20;99.90;;;6.46;100.00;97165.19;5014338;28;20057;-80
2023/04/25 06:34:20;;;;;;;13.80;11.60;;;7.20;99.90;;;6.49;100.00;97165.09;5012149;28;20046;-79
2023/04/25 06:36:51;;;;;;;20.05;14.35;;;7.20;99.90;;;6.57;100.00;97168.25;5014401;28;20128;-80
2023/04/25 06:39:19;;;;;;;16.88;13.50;;;7.20;99.90;;;6.74;100.00;97172.00;5012403;28;20502;-79
2023/04/25 06:41:47;;;;;;;13.98;11.05;;;7.30;99.90;;;6.81;100.00;97176.06;5007590;28;20164;-79
2023/04/25 06:44:15;;;;;;;17.52;13.02;;;7.40;99.90;;;6.87;100.00;97175.88;5001637;28;20061;-79
2023/04/25 06:46:42;;;;;;;20.92;14.18;;;7.40;99.90;;;6.68;100.00;97173.03;5011907;28;20152;-79
2023/04/25 06:49:10;;;;;;;16.40;12.10;;;7.50;99.90;;;6.74;100.00;97172.84;5007995;28;20057;-79
2023/04/25 06:51:37;;;;;;;16.15;12.90;;;7.40;99.90;;;6.66;100.00;97175.69;5012752;28;20133;-79
2023/04/25 06:54:04;;;;;;;13.48;11.02;;;7.40;99.90;;;6.83;100.00;97175.09;4995024;28;20046;-80
2023/04/25 06:56:31;;;;;;;13.45;11.73;;;7.40;99.90;;;6.79;100.00;97168.38;5010679;28;20057;-79
2023/04/25 06:59:00;;;;;;;16.15;13.52;;;7.40;99.90;;;6.56;100.00;97179.44;4997884;28;20070;-79
2023/04/25 07:01:28;;;;;;;15.88;12.73;;;7.30;99.90;;;6.61;100.00;97182.72;5013904;28;20772;-79
2023/04/25 07:03:55;;;;;;;15.90;11.43;;;7.20;99.90;;;6.59;100.00;97181.09;5005008;28;20112;-79
2023/04/25 07:06:23;;;;;;;16.00;13.68;;;7.10;99.90;;;6.55;100.00;97185.50;4995912;28;20058;-79
2023/04/25 07:08:50;;;;;;;15.00;11.98;;;7.10;99.90;;;6.41;100.00;97177.38;5018990;28;20678;-79
2023/04/25 07:11:18;;;;;;;15.38;10.75;;;7.00;99.90;;;6.36;100.00;97177.50;5015420;28;20053;-79
2023/04/25 07:13:45;;;;;;;13.48;11.45;;;7.00;99.90;;;6.33;100.00;97181.94;4995758;28;20129;-79
2023/04/25 07:16:13;;;;;;;12.32;9.18;;;7.00;99.90;;;6.31;100.00;97181.16;4994765;28;20054;-79
2023/04/25 07:18:41;;;;;;;11.80;9.75;;;7.00;99.90;;;6.23;100.00;97171.94;5014552;28;20105;-79
2023/04/25 07:21:08;;;;;;;14.48;10.70;;;6.90;99.90;;;6.35;100.00;97175.84;5010723;28;20060;-79
2023/04/25 07:23:37;;;;;;;12.30;9.10;;;6.80;99.90;;;6.40;100.00;97184.25;5008018;28;20252;-78
2023/04/25 07:26:04;;;;;;;13.75;8.65;;;6.80;99.90;;;6.31;100.00;97179.41;5015063;28;20056;-78
2023/04/25 07:28:31;;;;;;;11.10;8.43;;;6.80;99.90;;;6.36;100.00;97181.84;5012003;28;20520;-78
2023/04/25 07:30:58;;;;;;;13.30;9.65;;;6.90;99.90;;;6.61;100.00;97174.97;5008921;28;20504;-78
2023/04/25 07:33:25;;;;;;;11.45;9.45;;;7.10;99.90;;;6.55;100.00;97176.94;5018040;28;20042;-78
2023/04/25 07:35:53;;;;;;;11.95;9.25;;;7.20;99.90;;;6.58;100.00;97185.41;5011167;28;20054;-78
2023/04/25 07:38:20;;;;;;;11.48;8.88;;;7.20;99.90;;;6.78;100.00;97189.91;4988040;28;20057;-80
2023/04/25 07:40:48;;;;;;;10.65;8.35;;;7.30;99.90;;;7.08;100.00;97187.16;5005553;28;20052;-78
2023/04/25 07:43:16;;;;;;;10.15;7.60;;;7.50;99.90;;;7.37;100.00;97193.03;5008881;28;20890;-79
2023/04/25 07:45:44;;;;;;;13.60;10.20;;;7.60;99.90;;;7.23;100.00;97193.53;5012508;28;20064;-79
2023/04/25 07:48:13;;;;;;;12.65;10.23;;;7.60;99.90;;;7.11;100.00;97181.91;4998576;28;20053;-79
2023/04/25 07:50:41;;;;;;;15.45;10.85;;;7.60;99.90;;;7.02;100.00;97188.22;5006781;28;20104;-78
2023/04/25 07:53:12;;;;;;;13.57;10.52;;;7.60;99.90;;;6.93;100.00;97192.84;4993464;28;20125;-79
2023/04/25 07:55:40;;;;;;;16.38;12.65;;;7.60;99.90;;;6.80;100.00;97201.03;4996610;28;20069;-78
2023/04/25 07:58:08;;;;;;;16.45;13.55;;;7.60;99.90;;;6.71;100.00;97211.66;5011666;28;20427;-79
2023/04/25 08:00:36;;;;;;;14.68;10.23;;;7.50;99.90;;;6.35;100.00;97218.84;5011669;28;20057;-79
2023/04/25 08:03:03;;;;;;;14.77;11.73;;;7.40;99.90;;;6.42;100.00;97228.88;5004775;28;20037;-80
2023/04/25 08:05:30;;;;;;;15.07;11.25;;;7.40;99.90;;;6.57;100.00;97237.88;4988462;28;20054;-80
2023/04/25 08:07:58;;;;;;;15.70;12.00;;;7.30;99.90;;;6.57;100.00;97237.88;5012172;28;20042;-80
2023/04/25 08:10:25;;;;;;;13.10;10.93;;;7.40;99.90;;;6.60;100.00;97255.00;5012847;28;20079;-79
2023/04/25 08:12:52;;;;;;;20.00;14.38;;;7.40;99.90;;;6.59;100.00;97261.91;5013474;28;20128;-79
2023/04/25 08:15:20;;;;;;;16.50;12.82;;;7.40;99.90;;;6.35;100.00;97265.22;5013812;28;20080;-79
2023/04/25 08:17:49;;;;;;;25.15;16.73;;;7.30;99.90;;;6.40;100.00;97271.91;5010061;28;20135;-79
2023/04/25 08:20:16;;;;;;;22.45;16.75;;;7.20;99.90;;;6.66;100.00;97288.31;5008825;28;20082;-79
2023/04/25 08:22:43;;;;;;;23.10;18.02;;;7.30;99.90;;;6.64;100.00;97284.97;5009218;28;20096;-79
2023/04/25 08:25:11;;;;;;;25.52;19.40;;;7.30;99.90;;;6.52;100.00;97298.22;5013425;28;20084;-79
2023/04/25 08:27:56;;;;;;;25.35;19.33;;;7.40;99.90;;;6.46;100.00;97307.00;5004633;28;20053;-79
2023/04/25 08:30:24;;;;;;;10.80;6.25;;;7.30;99.90;;;5.82;100.00;97310.53;5005532;28;20050;-78
2023/04/25 08:32:50;;;;;;;9.35;6.53;;;7.00;99.90;;;5.62;100.00;97321.38;5003978;28;20058;-79
2023/04/25 08:35:18;;;;;;;12.70;6.57;;;6.80;99.90;;;5.64;100.00;97324.75;5019650;28;20060;-78
2023/04/25 08:37:45;;;;;;;10.23;6.82;;;6.60;99.90;;;5.56;100.00;97326.66;5011008;28;20044;-79
2023/04/25 08:40:14;;;;;;;10.95;7.00;;;6.50;99.90;;;5.58;100.00;97324.91;5012467;28;20821;-78
2023/04/25 08:42:42;;;;;;;9.30;6.30;;;6.50;99.90;;;5.44;100.00;97327.84;5021896;28;20057;-78
2023/04/25 08:45:10;;;;;;;13.73;7.50;;;6.50;99.90;;;5.65;100.00;97331.56;5013154;28;20048;-78
2023/04/25 08:47:39;;;;;;;10.10;6.30;;;6.40;99.90;;;5.89;100.00;97328.41;4979526;28;20531;-78
2023/04/25 08:50:16;;;;;;;9.00;6.35;;;6.60;99.90;;;6.09;100.00;97331.28;5020151;28;20053;-78
2023/04/25 08:52:48;;;;;;;10.02;6.78;;;6.70;99.90;;;6.25;100.00;97340.25;5017608;28;20080;-78
2023/04/25 08:55:16;;;;;;;10.05;7.30;;;6.80;99.90;;;6.28;100.00;97334.16;5015619;28;20510;-79
2023/04/25 08:57:44;;;;;;;10.27;6.65;;;6.90;99.90;;;6.22;100.00;97337.75;5017568;28;20047;-78
2023/04/25 09:00:14;;;;;;;8.60;6.15;;;7.00;99.90;;;6.36;100.00;97337.34;5013395;28;20060;-78
2023/04/25 09:02:43;;;;;;;12.35;8.88;;;7.10;99.90;;;6.61;100.00;97334.03;5006637;28;20065;-78
2023/04/25 09:05:13;;;;;;;14.35;9.02;;;7.20;99.90;;;6.62;100.00;97340.91;4992114;28;20535;-77
2023/04/25 09:07:41;;;;;;;14.05;9.50;;;7.30;99.90;;;6.68;100.00;97341.56;4996649;28;20053;-78
2023/04/25 09:10:09;;;;;;;12.02;9.07;;;7.30;99.90;;;6.83;100.00;97336.81;5009952;28;20807;-78
2023/04/25 09:12:37;;;;;;;18.92;9.95;;;7.50;99.90;;;7.18;100.00;97342.56;5015710;28;20101;-78
2023/04/25 09:15:11;;;;;;;17.35;9.90;;;7.60;99.90;;;7.37;100.00;97343.66;5010647;28;20068;-78
2023/04/25 09:17:44;;;;;;;13.52;8.25;;;7.90;99.90;;;7.52;100.00;97337.94;5010513;28;20615;-78
2023/04/25 09:20:14;;;;;;;13.40;8.15;;;8.20;99.90;;;7.79;100.00;97334.47;5010178;28;20108;-78
2023/04/25 09:22:42;;;;;;;12.63;8.23;;;8.50;99.90;;;7.71;100.00;97317.50;4996053;28;20054;-78
2023/04/25 09:25:12;;;;;;;12.32;8.75;;;;;;;8.04;100.00;97306.00;5011104;28;20088;-78
2023/04/25 09:27:56;;;;;;;18.30;9.32;;;8.50;99.90;;;8.48;100.00;97300.94;5013792;28;20060;-78
2023/04/25 09:30:32;;;;;;;11.38;7.05;;;8.80;99.90;;;7.94;100.00;97306.34;4985193;28;20142;-77
2023/04/25 09:33:11;;;;;;;11.98;7.70;;;8.90;99.90;;;7.63;100.00;97304.00;5006304;28;20614;-76
2023/04/25 09:35:44;;;;;;;11.18;7.15;;;8.80;99.90;;;7.47;100.00;97314.03;5005399;28;20427;-76
2023/04/25 09:38:18;;;;;;;16.13;7.78;;;8.60;99.90;;;7.88;100.00;97311.72;5011689;28;20050;-76
2023/04/25 09:40:49;;;;;;;13.85;6.43;;;8.40;99.90;;;7.71;100.00;97304.59;4997133;28;20678;-75
2023/04/25 09:43:23;;;;;;;15.45;7.70;;;8.50;99.90;;;8.34;100.00;97297.09;5013348;28;20133;-76
2023/04/25 09:45:56;;;;;;;13.13;7.65;;;8.60;99.90;;;8.66;100.00;97294.19;5002287;28;20419;-75
2023/04/25 09:48:27;;;;;;;14.77;8.20;;;8.90;99.90;;;9.06;100.00;97292.59;4992259;28;20057;-75
2023/04/25 09:51:13;;;;;;;13.15;8.23;;;9.20;99.90;;;9.31;100.00;97290.69;5013622;28;20571;-75
2023/04/25 09:53:43;;;;;;;14.93;6.85;;;9.50;99.90;;;8.89;100.00;97296.69;5008480;28;20057;-75
2023/04/25 09:56:12;;;;;;;13.80;6.47;;;9.80;99.90;;;9.07;100.00;97289.94;4997435;28;20053;-75
2023/04/25 09:58:40;;;;;;;14.18;6.82;;;9.80;99.90;;;9.11;100.00;97295.84;5009958;28;20053;-75
2023/04/25 10:01:10;;;;;;;16.05;7.70;;;9.70;99.90;;;9.23;100.00;97292.72;4998519;28;20045;-75
2023/04/25 10:03:45;;;;;;;14.27;7.72;;;9.60;99.90;;;9.26;100.00;97291.75;4996495;28;20074;-75
2023/04/25 10:06:20;;;;;;;14.52;7.22;;;9.70;99.90;;;9.82;100.00;97291.09;5001854;28;20050;-75
2023/04/25 10:08:51;;;;;;;11.23;6.75;;;9.90;99.90;;;8.88;100.00;97283.84;4995329;28;20046;-76
2023/04/25 10:11:18;;;;;;;13.02;6.85;;;10.00;99.90;;;8.62;100.00;97295.22;4987743;28;20053;-75
2023/04/25 10:13:47;;;;;;;12.27;6.18;;;9.80;99.90;;;7.89;100.00;97297.91;5010327;28;20041;-77
2023/04/25 10:16:16;;;;;;;11.27;6.70;;;9.50;99.90;;;7.69;100.00;97306.38;5012349;28;20165;-76
2023/04/25 10:18:43;;;;;;;14.52;8.23;;;9.00;99.90;;;8.13;100.00;97316.84;5011331;28;20046;-76
2023/04/25 10:21:11;;;;;;;16.17;7.97;;;8.80;99.90;;;8.56;100.00;97317.00;5012603;28;20427;-76